METAR Data
IDs: Format: Raw Decoded Include TAF

Data at: 0305 UTC 25 Feb 2021

LIMU 250155Z 00000KT CAVOK 14/04 Q1032 RMK SKC QUK / QUL / VIS MAR 15 KM VIS MIN 9999